Time;durP1;ratioP1;P1;durP2;ratioP2;P2;SDS_P1;SDS_P2;PMS_P1;PMS_P2;Temp;Humidity;BMP_temperature;BMP_pressure;BME280_temperature;BME280_humidity;BME280_pressure;Samples;Min_cycle;Max_cycle;Signal;HPM_P1;HPM_P2
2022/04/18 00:01:55;;;;;;;;;1.00;1.00;;;;;15.06;36.52;101575.59;4970281;28;60650;-68
2022/04/18 00:04:20;;;;;;;;;1.00;1.00;;;;;15.02;36.37;101574.88;4979596;28;45516;-68
2022/04/18 00:06:45;;;;;;;;;2.50;1.00;;;;;15.00;36.52;101566.16;4970945;28;55953;-69
2022/04/18 00:09:11;;;;;;;;;1.50;1.50;;;;;14.97;37.40;101566.28;4970918;28;45327;-69
2022/04/18 00:11:36;;;;;;;;;2.25;1.00;;;;;14.94;36.79;101560.31;4970766;28;45419;-69
2022/04/18 00:14:02;;;;;;;;;1.00;1.00;;;;;14.91;36.92;101556.00;4971138;28;45573;-68
2022/04/18 00:16:28;;;;;;;;;1.00;1.00;;;;;14.87;36.78;101565.88;4971291;28;45387;-68
2022/04/18 00:18:54;;;;;;;;;1.00;1.00;;;;;14.83;36.80;101558.16;4976005;28;45501;-68
2022/04/18 00:21:20;;;;;;;;;1.50;1.50;;;;;14.76;36.54;101547.00;4969629;28;45549;-68
2022/04/18 00:23:45;;;;;;;;;1.00;1.00;;;;;14.74;36.67;101543.56;4970239;28;45857;-67
2022/04/18 00:26:11;;;;;;;;;0.50;0.25;;;;;14.70;36.69;101549.94;4969828;28;45515;-67
2022/04/18 00:28:36;;;;;;;;;2.75;2.00;;;;;14.68;36.66;101548.31;4970776;28;45454;-67
2022/04/18 00:31:02;;;;;;;;;2.00;2.00;;;;;14.66;36.74;101537.78;4973628;28;45300;-68
2022/04/18 00:33:27;;;;;;;;;1.25;1.00;;;;;14.63;37.32;101537.09;5014315;28;45350;-68
2022/04/18 00:35:53;;;;;;;;;1.00;1.00;;;;;14.59;37.62;101534.56;5001259;27;55542;-67
2022/04/18 00:38:19;;;;;;;;;0.00;0.00;;;;;14.54;37.78;101531.28;4971591;28;45547;-67
2022/04/18 00:40:44;;;;;;;;;1.00;1.00;;;;;14.50;37.92;101537.63;4970146;28;46835;-68
2022/04/18 00:43:10;;;;;;;;;1.25;1.25;;;;;14.47;38.07;101534.28;4973203;28;45477;-68
2022/04/18 00:45:36;;;;;;;;;2.75;1.75;;;;;14.44;37.88;101534.41;4968809;28;45363;-68
2022/04/18 00:48:02;;;;;;;;;2.25;2.25;;;;;14.42;37.44;101529.19;4970206;28;45409;-68
2022/04/18 00:50:29;;;;;;;;;3.50;1.00;;;;;14.40;37.53;101524.88;4964521;28;46230;-68
2022/04/18 00:52:55;;;;;;;;;1.00;1.00;;;;;14.39;37.76;101520.53;4985865;28;45557;-68
2022/04/18 00:55:21;;;;;;;;;1.00;1.00;;;;;14.37;37.97;101525.91;4975870;28;45706;-68
2022/04/18 00:57:48;;;;;;;;;2.00;2.00;;;;;14.35;37.73;101519.81;4979841;28;45363;-68
2022/04/18 01:00:14;;;;;;;;;1.50;1.50;;;;;14.34;37.70;101512.81;4968296;28;46294;-68
2022/04/18 01:02:40;;;;;;;;;2.50;1.50;;;;;14.33;37.95;101519.88;4969870;28;45549;-68
2022/04/18 01:05:06;;;;;;;;;1.00;1.00;;;;;14.32;37.79;101517.31;4972028;28;45614;-68
2022/04/18 01:07:31;;;;;;;;;2.00;2.00;;;;;14.30;37.85;101514.75;4977572;28;45457;-68
2022/04/18 01:09:56;;;;;;;;;1.00;1.00;;;;;14.30;38.23;101522.69;4974241;28;46243;-68
2022/04/18 01:12:22;;;;;;;;;1.00;1.00;;;;;14.27;38.74;101516.66;4974967;28;45291;-68
2022/04/18 01:14:48;;;;;;;;;2.75;2.00;;;;;14.26;38.50;101515.81;4972986;28;47563;-68
2022/04/18 01:17:15;;;;;;;;;1.75;1.75;;;;;14.25;38.48;101515.88;4974077;28;45446;-68
2022/04/18 01:19:41;;;;;;;;;2.75;2.50;;;;;14.22;38.67;101523.94;4976243;28;46346;-68
2022/04/18 01:22:09;;;;;;;;;2.00;2.00;;;;;14.17;38.88;101518.88;4974680;28;45426;-68
2022/04/18 01:30:03;;;;;;;;;1.50;1.25;;;;;14.04;38.76;101520.34;4978016;28;45286;-69
2022/04/18 01:32:28;;;;;;;;;3.00;1.25;;;;;14.00;38.70;101517.00;4976993;28;45432;-68
2022/04/18 01:34:53;;;;;;;;;1.00;1.00;;;;;13.99;38.85;101509.13;4976326;28;45389;-68
2022/04/18 01:37:19;;;;;;;;;2.00;2.00;;;;;13.97;39.27;101508.34;4973395;28;45399;-69
2022/04/18 01:39:44;;;;;;;;;1.00;1.00;;;;;13.94;39.42;101505.81;4971314;28;48894;-68
2022/04/18 01:42:09;;;;;;;;;1.00;1.00;;;;;13.89;39.80;101507.84;4970065;28;64376;-69
2022/04/18 01:44:35;;;;;;;;;2.00;2.00;;;;;13.83;39.95;101501.91;4971925;28;45387;-68
2022/04/18 01:47:00;;;;;;;;;3.00;2.00;;;;;13.78;40.06;101497.72;4971001;28;45585;-68
2022/04/18 01:49:26;;;;;;;;;3.25;2.00;;;;;13.72;39.82;101504.13;4973904;28;46908;-69
2022/04/18 01:51:51;;;;;;;;;1.25;1.00;;;;;13.67;40.32;101495.53;4972919;28;45359;-69
2022/04/18 01:54:17;;;;;;;;;3.00;2.50;;;;;13.60;40.44;101494.09;4972142;28;45633;-69
2022/04/18 01:56:43;;;;;;;;;2.00;2.00;;;;;13.54;40.44;101500.53;4972162;27;45566;-69
2022/04/18 01:59:08;;;;;;;;;2.00;2.00;;;;;13.48;40.58;101494.66;4971816;28;47731;-69
2022/04/18 02:01:33;;;;;;;;;2.00;2.00;;;;;13.41;41.04;101490.53;4973406;28;46925;-69
2022/04/18 02:03:59;;;;;;;;;1.50;1.00;;;;;13.34;41.05;101492.59;4970920;28;46651;-68
2022/04/18 02:06:24;;;;;;;;;2.50;2.00;;;;;13.29;41.17;101487.50;4973095;28;45477;-69
2022/04/18 02:08:49;;;;;;;;;2.25;1.00;;;;;13.23;41.64;101490.41;4971444;28;45993;-69
2022/04/18 02:11:15;;;;;;;;;1.75;1.75;;;;;13.16;41.97;101486.28;4972123;28;47906;-68
2022/04/18 02:13:40;;;;;;;;;2.25;2.25;;;;;13.10;42.21;101485.66;4977847;28;45518;-68
2022/04/18 02:16:06;;;;;;;;;1.50;1.50;;;;;13.03;42.49;101474.50;4977567;28;45784;-69
2022/04/18 02:18:31;;;;;;;;;1.50;1.50;;;;;12.98;42.87;101487.03;4969211;28;45989;-69
2022/04/18 02:20:57;;;;;;;;;2.00;2.00;;;;;12.91;43.41;101480.28;4973170;28;45615;-69
2022/04/18 02:23:22;;;;;;;;;4.25;2.25;;;;;12.86;43.96;101485.75;4976388;28;45497;-68
2022/04/18 02:25:48;;;;;;;;;2.75;2.00;;;;;12.80;44.85;101488.63;4975121;28;45488;-68
2022/04/18 02:28:13;;;;;;;;;1.50;1.50;;;;;12.74;44.82;101480.97;4974067;28;46000;-69
2022/04/18 02:30:39;;;;;;;;;4.25;3.00;;;;;12.71;45.59;101483.72;4973649;28;45746;-69
2022/04/18 02:33:04;;;;;;;;;5.75;3.00;;;;;12.66;45.87;101489.19;4971064;28;45247;-69
2022/04/18 02:35:29;;;;;;;;;5.00;3.25;;;;;12.60;46.22;101489.44;4973235;28;45346;-69
2022/04/18 02:37:55;;;;;;;;;5.50;3.00;;;;;12.56;46.91;101487.81;4972099;28;45493;-69
2022/04/18 02:40:22;;;;;;;;;3.25;3.25;;;;;12.51;46.63;101480.09;4973720;28;45800;-69
2022/04/18 02:42:47;;;;;;;;;4.75;4.75;;;;;12.46;47.06;101478.56;4979552;28;45483;-69
2022/04/18 02:45:14;;;;;;;;;4.00;4.00;;;;;12.43;46.94;101476.06;4972157;28;45350;-68
2022/04/18 02:47:40;;;;;;;;;6.00;5.00;;;;;12.37;47.29;101465.72;4971171;28;45422;-69
2022/04/18 02:50:06;;;;;;;;;5.75;4.00;;;;;12.30;47.41;101466.88;4971287;28;45481;-69
2022/04/18 02:52:32;;;;;;;;;4.75;4.00;;;;;12.23;47.74;101474.19;4972134;28;45360;-68
2022/04/18 02:54:58;;;;;;;;;7.50;5.75;;;;;12.14;48.08;101467.47;4974112;28;45283;-69
2022/04/18 02:57:23;;;;;;;;;5.50;5.00;;;;;12.09;48.15;101463.28;4971910;28;45279;-69
2022/04/18 02:59:49;;;;;;;;;7.00;5.00;;;;;12.04;48.34;101466.09;4970141;28;45352;-68
2022/04/18 03:02:14;;;;;;;;;7.50;4.75;;;;;11.97;48.96;101467.25;4971799;28;45469;-69
2022/04/18 03:04:40;;;;;;;;;5.00;5.00;;;;;11.91;48.58;101470.13;4976804;28;45462;-68
2022/04/18 03:07:05;;;;;;;;;4.25;4.25;;;;;11.84;49.09;101468.59;4973589;28;46999;-69
2022/04/18 03:09:31;;;;;;;;;5.00;3.25;;;;;11.79;48.86;101470.50;4973440;28;45668;-68
2022/04/18 03:11:57;;;;;;;;;6.00;4.25;;;;;11.71;49.18;101461.13;4977234;28;45505;-69
2022/04/18 03:14:23;;;;;;;;;5.50;5.00;;;;;11.68;49.12;101458.59;4971660;28;45504;-69
2022/04/18 03:16:49;;;;;;;;;4.75;4.75;;;;;11.62;49.85;101468.50;4962529;28;46391;-69
2022/04/18 03:19:14;;;;;;;;;7.25;5.75;;;;;11.57;49.90;101470.41;4973698;28;45516;-68
2022/04/18 03:21:40;;;;;;;;;7.50;4.50;;;;;11.50;49.88;101472.41;4971513;28;46117;-68
2022/04/18 03:24:06;;;;;;;;;6.25;5.00;;;;;11.44;50.33;101467.38;4972334;28;45601;-68
2022/04/18 03:26:31;;;;;;;;;8.00;5.25;;;;;11.37;50.14;101465.84;4970059;28;46123;-68
2022/04/18 03:28:57;;;;;;;;;2.50;2.50;;;;;11.30;50.53;101467.84;4958093;28;45411;-69
2022/04/18 03:31:22;;;;;;;;;4.00;4.00;;;;;11.22;50.60;101467.22;4974302;28;45466;-68
2022/04/18 03:33:47;;;;;;;;;4.00;4.00;;;;;11.17;51.30;101467.41;4972170;28;45292;-68
2022/04/18 03:41:41;;;;;;;;;5.00;4.50;;;;;10.96;51.49;101465.47;4962641;28;45480;-69
2022/04/18 03:44:07;;;;;;;;;4.00;3.25;;;;;10.89;51.95;101469.22;4962291;28;45480;-68
2022/04/18 03:46:32;;;;;;;;;3.00;3.00;;;;;10.82;51.90;101465.06;4970421;28;46037;-69
2022/04/18 03:48:57;;;;;;;;;4.50;4.00;;;;;10.78;52.31;101469.56;4972733;28;45365;-69
2022/04/18 03:51:23;;;;;;;;;5.50;4.25;;;;;10.74;52.66;101469.72;4970583;28;45455;-68
2022/04/18 03:53:48;;;;;;;;;3.00;3.00;;;;;10.70;52.78;101461.03;4970960;28;45407;-69
2022/04/18 03:56:14;;;;;;;;;5.75;4.00;;;;;10.67;52.55;101461.16;4973434;28;45454;-68
2022/04/18 03:58:39;;;;;;;;;3.00;3.00;;;;;10.63;52.81;101462.16;4971675;28;53342;-68
2022/04/18 04:01:04;;;;;;;;;3.50;3.50;;;;;10.58;53.08;101462.31;4973514;28;45367;-68
2022/04/18 04:03:30;;;;;;;;;3.00;3.00;;;;;10.56;53.61;101465.91;4971425;28;46479;-69
2022/04/18 04:05:55;;;;;;;;;3.75;3.75;;;;;10.52;53.43;101465.13;4966000;28;46490;-68
2022/04/18 04:08:24;;;;;;;;;4.50;3.75;;;;;10.49;53.58;101465.22;4971469;28;45426;-68
2022/04/18 04:10:50;;;;;;;;;4.75;4.75;;;;;10.44;53.97;101457.50;4967169;28;46427;-68
2022/04/18 04:13:16;;;;;;;;;6.00;3.50;;;;;10.40;54.12;101461.13;4978002;28;45531;-68
2022/04/18 04:15:41;;;;;;;;;3.50;3.00;;;;;10.38;54.30;101468.16;4971876;28;46011;-68
2022/04/18 04:18:07;;;;;;;;;2.25;1.00;;;;;10.35;54.58;101456.91;4970859;28;45503;-68
2022/04/18 04:20:32;;;;;;;;;4.50;3.00;;;;;10.32;54.43;101454.38;4969362;28;45444;-68
2022/04/18 04:22:57;;;;;;;;;8.25;4.00;;;;;10.30;54.77;101450.94;4960744;28;46352;-69
2022/04/18 04:25:23;;;;;;;;;7.00;7.00;;;;;10.28;54.82;101445.72;4971034;28;67136;-68
2022/04/18 04:27:48;;;;;;;;;4.50;4.00;;;;;10.25;54.78;101452.84;4971196;28;45487;-68
2022/04/18 04:30:13;;;;;;;;;6.00;2.00;;;;;10.22;55.47;101456.38;4968808;28;45466;-68
2022/04/18 04:32:39;;;;;;;;;3.00;3.00;;;;;10.20;55.49;101455.56;4970486;28;45355;-68
2022/04/18 04:35:04;;;;;;;;;3.25;3.25;;;;;10.16;55.30;101452.16;4969242;28;45505;-68
2022/04/18 04:37:30;;;;;;;;;4.00;2.00;;;;;10.13;55.47;101451.41;4971620;28;45350;-68
2022/04/18 04:39:55;;;;;;;;;8.00;4.00;;;;;10.11;55.52;101454.06;4971798;28;45402;-68
2022/04/18 04:42:20;;;;;;;;;5.00;4.00;;;;;10.08;55.21;101455.94;4967650;28;45460;-69
2022/04/18 04:44:46;;;;;;;;;2.25;2.25;;;;;10.04;55.68;101459.56;4963252;28;46177;-69
2022/04/18 04:47:11;;;;;;;;;3.00;3.00;;;;;10.00;55.61;101456.16;4970690;28;45480;-68
2022/04/18 04:49:37;;;;;;;;;4.00;4.00;;;;;9.98;55.74;101457.97;4969670;28;45338;-69
2022/04/18 04:52:05;;;;;;;;;9.00;3.75;;;;;9.95;55.98;101458.03;4987157;28;45498;-69
2022/04/18 04:54:31;;;;;;;;;4.00;2.75;;;;;9.93;56.08;101465.97;4979604;28;45663;-69
2022/04/18 04:56:56;;;;;;;;;3.75;3.75;;;;;9.90;56.17;101452.06;4970412;28;45453;-68
2022/04/18 04:59:21;;;;;;;;;7.67;3.67;;;;;9.89;56.41;101455.59;4969861;28;47177;-68
2022/04/18 05:01:47;;;;;;;;;5.00;3.25;;;;;9.87;56.75;101455.66;4971808;28;45492;-68
2022/04/18 05:04:12;;;;;;;;;5.00;4.00;;;;;9.84;56.84;101457.50;4971715;28;51656;-68
2022/04/18 05:06:37;;;;;;;;;3.75;3.75;;;;;9.84;56.84;101457.50;4971044;28;46206;-68
2022/04/18 05:09:03;;;;;;;;;4.33;4.33;;;;;9.82;57.01;101449.69;4968784;28;45419;-69
2022/04/18 05:11:28;;;;;;;;;6.75;3.50;;;;;9.82;56.94;101457.56;4970233;28;45398;-68
2022/04/18 05:13:54;;;;;;;;;5.00;4.00;;;;;9.82;56.74;101456.69;4969215;28;52894;-68
2022/04/18 05:16:20;;;;;;;;;3.00;3.00;;;;;9.81;57.18;101458.44;4972874;28;45264;-68
2022/04/18 05:18:45;;;;;;;;;4.50;3.50;;;;;9.81;57.44;101462.81;4963857;28;45722;-68
2022/04/18 05:21:11;;;;;;;;;7.00;6.00;;;;;9.80;57.54;101469.84;4970730;28;45548;-68
2022/04/18 05:23:36;;;;;;;;;4.75;4.75;;;;;9.78;57.24;101471.66;4969926;28;45823;-69
2022/04/18 05:26:02;;;;;;;;;5.00;5.00;;;;;9.76;57.83;101468.22;4969929;28;45471;-69
2022/04/18 05:28:27;;;;;;;;;4.00;4.00;;;;;9.77;57.73;101466.47;4971128;28;45306;-68
2022/04/18 05:30:53;;;;;;;;;7.00;5.25;;;;;9.80;57.55;101469.84;4970039;28;45495;-68
2022/04/18 05:33:21;;;;;;;;;7.00;4.00;;;;;9.81;57.85;101466.31;4970909;28;47600;-68
2022/04/18 05:35:46;;;;;;;;;7.00;5.25;;;;;9.81;57.75;101476.81;4972537;28;45800;-68
2022/04/18 05:38:14;;;;;;;;;8.75;5.25;;;;;9.83;57.77;101479.41;4969267;28;45548;-68
2022/04/18 05:40:39;;;;;;;;;8.00;7.00;;;;;9.84;57.61;101479.34;5007984;28;45448;-68
2022/04/18 05:43:05;;;;;;;;;7.00;4.50;;;;;9.87;57.84;101476.66;4971773;28;46074;-69
2022/04/18 05:45:30;;;;;;;;;6.50;4.00;;;;;9.90;58.04;101481.81;4970289;28;45638;-68
2022/04/18 05:47:56;;;;;;;;;7.75;7.00;;;;;9.96;58.23;101483.41;4976235;28;45604;-68
2022/04/18 05:50:21;;;;;;;;;8.50;4.50;;;;;10.02;58.45;101485.84;4970418;28;45584;-68
2022/04/18 05:52:47;;;;;;;;;9.00;6.25;;;;;10.09;58.28;101492.66;4961528;28;45981;-68
2022/04/18 05:55:12;;;;;;;;;4.75;4.75;;;;;10.17;58.05;101495.91;4974061;28;45528;-68
2022/04/18 05:57:38;;;;;;;;;10.50;5.25;;;;;10.28;57.93;101492.13;4972841;28;45293;-69
2022/04/18 06:00:05;;;;;;;;;8.25;6.00;;;;;10.37;57.62;101499.75;4974627;28;45567;-68
2022/04/18 06:02:30;;;;;;;;;4.75;4.50;;;;;10.46;58.12;101494.22;4975740;28;46198;-68
2022/04/18 06:04:55;;;;;;;;;4.00;4.00;;;;;10.56;55.74;101492.19;4973230;28;45486;-69
2022/04/18 06:07:20;;;;;;;;;5.00;5.00;;;;;10.70;55.23;101500.47;4980564;28;53368;-68
2022/04/18 06:09:46;;;;;;;;;3.50;3.00;;;;;10.82;55.08;101502.75;4972686;28;45514;-68
2022/04/18 06:12:11;;;;;;;;;5.00;4.00;;;;;10.94;54.42;101499.72;4969079;28;45629;-68
2022/04/18 06:14:36;;;;;;;;;2.50;2.25;;;;;11.06;53.31;101501.06;4976998;28;51956;-69
2022/04/18 06:17:02;;;;;;;;;3.50;3.50;;;;;11.19;52.78;101494.50;4978523;28;46641;-68
2022/04/18 06:19:27;;;;;;;;;4.25;4.00;;;;;11.31;52.28;101495.88;4973421;28;45458;-68
2022/04/18 06:21:52;;;;;;;;;5.33;4.33;;;;;11.46;52.08;101497.13;4972899;28;54694;-69
2022/04/18 06:24:18;;;;;;;;;3.00;3.00;;;;;11.60;51.07;101500.16;4972638;28;45341;-68
2022/04/18 06:26:44;;;;;;;;;2.00;2.00;;;;;11.73;51.02;101498.78;4972558;28;45268;-68
2022/04/18 06:29:09;;;;;;;;;3.00;3.00;;;;;11.86;50.12;101487.84;4972557;28;45449;-68
2022/04/18 06:31:34;;;;;;;;;7.00;3.00;;;;;11.99;50.10;101497.00;4981983;28;46115;-68
2022/04/18 06:33:59;;;;;;;;;3.00;3.00;;;;;12.09;49.83;101495.75;4983621;28;50832;-68
2022/04/18 06:36:25;;;;;;;;;4.50;3.00;;;;;12.21;48.86;101495.28;4970809;28;51252;-69
2022/04/18 06:38:50;;;;;;;;;4.00;4.00;;;;;12.33;48.95;101499.25;4980218;28;45719;-68
2022/04/18 06:41:15;;;;;;;;;4.25;3.00;;;;;12.45;48.63;101508.47;4971009;28;46112;-69
2022/04/18 06:43:41;;;;;;;;;5.00;3.50;;;;;12.56;48.30;101506.28;4969850;28;45458;-68
2022/04/18 06:46:06;;;;;;;;;3.75;3.00;;;;;12.69;48.13;101509.31;4973160;28;46636;-69
2022/04/18 06:48:31;;;;;;;;;3.25;3.00;;;;;12.81;47.58;101514.09;4974479;28;45747;-68
2022/04/18 06:50:57;;;;;;;;;4.00;4.00;;;;;12.96;47.86;101502.94;4972241;28;45536;-68
2022/04/18 06:53:22;;;;;;;;;3.50;3.50;;;;;13.14;47.04;101509.22;4969614;28;45454;-68
2022/04/18 06:58:42;;;;;;;;;3.00;3.00;;;;;13.57;46.19;101503.03;4993493;28;45416;-68
2022/04/18 07:01:07;;;;;;;;;4.00;4.00;;;;;13.73;46.11;101504.97;4982940;28;45422;-69
2022/04/18 07:03:33;;;;;;;;;4.25;4.00;;;;;13.81;45.70;101501.09;4991401;28;45511;-68
2022/04/18 07:05:58;;;;;;;;;3.75;3.25;;;;;13.89;45.37;101497.28;4992450;28;45467;-68
2022/04/18 07:08:23;;;;;;;;;4.50;3.00;;;;;13.97;45.26;101500.41;4992727;28;45519;-69
2022/04/18 07:10:50;;;;;;;;;5.00;5.00;;;;;14.03;44.83;101497.50;4992179;28;46162;-68
2022/04/18 07:13:15;;;;;;;;;3.75;2.25;;;;;14.07;44.91;101507.00;4994583;28;45934;-68
2022/04/18 07:15:40;;;;;;;;;2.00;2.00;;;;;14.05;44.85;101504.44;4989928;28;45600;-68
2022/04/18 07:18:06;;;;;;;;;5.50;3.75;;;;;14.05;44.49;101508.88;4992499;28;45578;-69
2022/04/18 07:20:31;;;;;;;;;5.00;4.00;;;;;14.08;44.73;101500.78;4992845;28;56562;-69
2022/04/18 07:22:57;;;;;;;;;3.00;3.00;;;;;14.17;44.13;101497.72;4997387;28;45433;-69
2022/04/18 07:25:22;;;;;;;;;6.00;4.50;;;;;14.33;43.88;101498.72;4994831;28;45460;-68
2022/04/18 07:27:47;;;;;;;;;5.00;5.00;;;;;14.44;43.92;101498.22;4993277;28;45587;-69
2022/04/18 07:30:13;;;;;;;;;5.50;5.00;;;;;14.52;43.83;101497.91;4992948;28;46017;-68
2022/04/18 07:32:40;;;;;;;;;3.50;3.25;;;;;14.54;43.82;101499.53;4988654;28;45440;-68
2022/04/18 07:35:06;;;;;;;;;4.50;4.00;;;;;14.52;43.38;101497.91;4980649;28;45463;-69
2022/04/18 07:37:31;;;;;;;;;3.00;3.00;;;;;14.56;44.01;101504.75;4972028;28;45342;-69
2022/04/18 07:39:56;;;;;;;;;6.50;4.00;;;;;14.68;44.39;101500.69;4980421;28;45460;-69
2022/04/18 07:42:22;;;;;;;;;3.50;2.50;;;;;14.79;43.71;101499.25;4974778;28;56274;-69
2022/04/18 07:44:47;;;;;;;;;4.50;4.50;;;;;14.92;43.15;101496.84;4971578;28;45510;-69
2022/04/18 07:47:12;;;;;;;;;5.00;4.00;;;;;15.09;42.63;101499.53;4971427;28;45545;-69
2022/04/18 07:49:38;;;;;;;;;4.00;4.00;;;;;15.34;42.40;101491.19;4978365;28;56147;-69
2022/04/18 07:52:04;;;;;;;;;3.00;3.00;;;;;15.62;41.74;101495.94;4961881;28;49568;-68
2022/04/18 07:54:29;;;;;;;;;4.50;3.00;;;;;15.94;41.85;101492.56;4968028;28;45357;-69
2022/04/18 07:56:55;;;;;;;;;2.25;2.25;;;;;16.25;40.90;101494.44;4970591;28;54122;-68
2022/04/18 07:59:22;;;;;;;;;4.00;4.00;;;;;16.56;40.95;101490.94;4970840;28;46867;-69
2022/04/18 08:01:48;;;;;;;;;4.50;4.00;;;;;16.90;40.98;101492.56;4968906;28;45466;-69
2022/04/18 08:04:13;;;;;;;;;3.50;3.25;;;;;17.07;40.14;101483.63;4974535;28;45449;-69
2022/04/18 08:06:39;;;;;;;;;3.50;3.00;;;;;17.26;40.05;101484.25;4973665;28;45463;-69
2022/04/18 08:09:04;;;;;;;;;5.00;4.00;;;;;17.59;40.79;101492.03;4971078;28;47288;-69
2022/04/18 08:11:30;;;;;;;;;4.75;4.75;;;;;17.96;39.87;101490.66;4988934;28;49049;-68
2022/04/18 08:13:56;;;;;;;;;6.25;3.25;;;;;18.48;39.54;101482.06;5002076;28;45414;-69
2022/04/18 08:16:21;;;;;;;;;3.75;3.75;;;;;18.84;37.98;101488.63;4978390;28;45746;-69
2022/04/18 08:18:47;;;;;;;;;5.00;4.25;;;;;19.08;37.56;101483.50;4983415;28;45391;-69
2022/04/18 08:21:17;;;;;;;;;4.00;4.00;;;;;19.38;37.45;101479.72;4978609;28;45496;-69
2022/04/18 08:23:43;;;;;;;;;6.00;3.75;;;;;19.77;37.13;101486.81;4968820;28;45326;-69
2022/04/18 08:26:09;;;;;;;;;3.00;3.00;;;;;20.13;37.45;101483.38;4988164;28;45480;-68
2022/04/18 08:28:35;;;;;;;;;5.00;4.00;;;;;20.41;37.13;101474.25;4988179;28;46463;-68
2022/04/18 08:31:01;;;;;;;;;5.00;4.00;;;;;20.68;36.37;101482.09;4976487;28;45372;-68
2022/04/18 08:33:29;;;;;;;;;6.25;4.00;;;;;20.84;35.91;101481.81;4977635;28;45364;-71
2022/04/18 08:35:57;;;;;;;;;5.50;3.50;;;;;21.04;36.04;101481.19;4976229;28;45484;-69
2022/04/18 08:38:22;;;;;;;;;5.00;3.75;;;;;21.69;36.30;101477.13;4992399;28;46166;-69
2022/04/18 08:40:50;;;;;;;;;5.00;5.00;;;;;23.68;35.35;101480.41;4956929;28;45562;-68
2022/04/18 08:43:15;;;;;;;;;3.25;3.00;;;;;25.23;33.78;101471.94;4998788;28;45626;-68
2022/04/18 08:45:40;;;;;;;;;5.50;4.75;;;;;27.67;33.93;101473.94;4972528;28;45381;-68
2022/04/18 08:53:35;;;;;;;;;4.00;2.00;;;;;33.20;26.51;101470.44;4972837;28;45541;-68
2022/04/18 08:56:01;;;;;;;;;3.00;3.00;;;;;34.81;25.76;101469.22;4982169;28;45480;-70
2022/04/18 08:58:27;;;;;;;;;3.75;3.75;;;;;35.99;24.94;101477.63;4983426;28;46976;-69
2022/04/18 09:00:55;;;;;;;;;4.75;3.00;;;;;37.09;23.92;101472.81;5002324;28;45713;-70
2022/04/18 09:03:20;;;;;;;;;3.00;3.00;;;;;38.47;23.16;101474.28;4997010;28;45443;-68
2022/04/18 09:05:46;;;;;;;;;3.75;3.00;;;;;39.62;22.01;101477.50;5013150;27;45529;-68
2022/04/18 09:08:12;;;;;;;;;4.00;4.00;;;;;40.55;20.62;101486.63;4979402;28;46308;-68
2022/04/18 09:10:39;;;;;;;;;5.50;3.75;;;;;40.91;19.63;101476.25;5010431;28;45400;-70
2022/04/18 09:13:13;;;;;;;;;3.50;3.50;;;;;40.73;19.56;101476.50;4972187;28;45335;-68
2022/04/18 09:15:51;;;;;;;;;5.25;3.25;;;;;40.51;18.85;101471.66;4968705;28;45531;-68
2022/04/18 09:18:21;;;;;;;;;4.25;3.00;;;;;39.89;19.15;101474.25;4999623;28;45434;-68
2022/04/18 09:20:50;;;;;;;;;5.00;4.00;;;;;39.19;19.28;101466.88;4974684;28;46856;-69
2022/04/18 09:23:24;;;;;;;;;7.00;3.50;;;;;38.62;19.07;101469.22;4976618;28;45644;-69
2022/04/18 09:25:58;;;;;;;;;4.75;4.75;;;;;38.38;18.94;101462.81;4970653;28;45344;-68
2022/04/18 09:28:26;;;;;;;;;2.00;2.00;;;;;38.32;19.10;101461.84;4975963;28;46452;-69
2022/04/18 09:31:09;;;;;;;;;4.25;4.25;;;;;38.08;19.05;101466.34;4973238;28;47017;-69
2022/04/18 09:33:37;;;;;;;;;4.75;4.50;;;;;37.50;19.19;101463.19;4973259;28;49531;-68
2022/04/18 09:36:13;;;;;;;;;5.75;5.25;;;;;36.50;18.70;101466.66;4977049;28;45663;-69
2022/04/18 09:38:43;;;;;;;;;0.00;0.00;;;;;35.99;19.42;101466.66;4975013;28;45545;-69
2022/04/18 09:41:12;;;;;;;;;4.00;4.00;;;;;35.85;19.59;101468.56;4991601;28;45497;-69
2022/04/18 09:43:45;;;;;;;;;3.75;3.75;;;;;36.10;19.69;101457.78;4982018;28;45568;-69
2022/04/18 09:46:12;;;;;;;;;5.00;5.00;;;;;36.32;19.68;101455.56;4995375;28;45461;-69
2022/04/18 09:48:38;;;;;;;;;4.50;4.50;;;;;36.46;19.51;101448.16;4989179;27;46967;-70
2022/04/18 09:51:14;;;;;;;;;4.50;4.50;;;;;36.34;19.19;101445.25;4998047;28;45437;-70
2022/04/18 09:53:44;;;;;;;;;16.50;12.25;;;;;36.22;19.12;101455.19;4996624;28;45583;-70
2022/04/18 09:56:19;;;;;;;;;5.50;5.00;;;;;35.86;19.52;101448.34;4995649;28;45484;-70
2022/04/18 09:58:44;;;;;;;;;4.25;4.25;;;;;35.45;19.31;101454.16;4983408;28;46206;-70
2022/04/18 10:01:11;;;;;;;;;4.25;4.25;;;;;35.21;20.18;101455.63;4982348;28;45419;-70
2022/04/18 10:03:38;;;;;;;;;6.00;4.00;;;;;34.78;18.96;101445.91;4993842;28;45993;-69
2022/04/18 10:06:05;;;;;;;;;4.25;3.00;;;;;34.65;19.55;101447.78;5008160;27;46861;-69
2022/04/18 10:08:31;;;;;;;;;5.50;5.50;;;;;34.70;19.36;101445.25;4977011;28;48413;-69
2022/04/18 10:10:59;;;;;;;;;6.75;5.00;;;;;34.56;19.14;101440.81;4974106;28;46595;-69
2022/04/18 10:13:26;;;;;;;;;7.25;6.25;;;;;34.27;18.89;101440.09;4973060;28;45697;-69
2022/04/18 10:15:52;;;;;;;;;9.00;6.00;;;;;34.07;19.53;101441.91;4973477;28;45538;-69
2022/04/18 10:18:18;;;;;;;;;5.00;5.00;;;;;33.59;19.08;101436.41;4973064;28;45350;-69
2022/04/18 10:21:03;;;;;;;;;5.25;5.25;;;;;33.06;19.53;101431.38;4971700;28;45346;-68
2022/04/18 10:23:46;;;;;;;;;7.75;6.00;;;;;32.78;19.63;101428.56;4972796;28;45410;-68
2022/04/18 10:26:38;;;;;;;;;7.75;6.50;;;;;32.53;20.43;101432.75;4972274;28;45380;-68
2022/04/18 10:29:09;;;;;;;;;11.75;11.25;;;;;32.25;20.00;101433.44;4959036;28;46913;-69
2022/04/18 10:31:39;;;;;;;;;7.00;6.00;;;;;31.56;20.37;101439.19;4972545;28;45903;-69
2022/04/18 10:34:05;;;;;;;;;8.50;7.75;;;;;31.10;20.30;101438.44;4972744;28;45358;-69
2022/04/18 10:36:32;;;;;;;;;14.75;12.75;;;;;30.82;20.87;101441.72;4971025;28;45440;-69
2022/04/18 10:39:03;;;;;;;;;13.00;11.25;;;;;30.55;20.97;101436.81;4970955;28;45501;-69
2022/04/18 10:41:38;;;;;;;;;6.75;6.75;;;;;30.23;20.92;101425.13;4972534;28;45599;-69
2022/04/18 10:44:10;;;;;;;;;10.50;9.75;;;;;30.17;21.46;101425.81;4971409;28;45475;-69
2022/04/18 10:46:51;;;;;;;;;8.00;8.00;;;;;30.22;21.23;101423.41;4972548;28;45506;-68
2022/04/18 10:49:18;;;;;;;;;9.25;5.50;;;;;30.30;21.38;101431.53;4969948;28;46093;-70
2022/04/18 10:51:46;;;;;;;;;3.75;3.75;;;;;30.16;20.53;101426.84;4971732;28;45502;-69
2022/04/18 10:54:20;;;;;;;;;6.00;4.25;;;;;29.93;20.49;101420.50;4970075;28;45491;-69
2022/04/18 10:57:02;;;;;;;;;5.50;5.25;;;;;29.58;19.97;101420.78;4962792;28;45513;-68
2022/04/18 10:59:42;;;;;;;;;8.50;5.75;;;;;29.33;20.87;101419.09;4971785;28;45708;-69
2022/04/18 11:02:28;;;;;;;;;4.75;4.75;;;;;29.13;20.69;101418.66;4972162;28;45473;-69
2022/04/18 11:04:53;;;;;;;;;5.00;4.00;;;;;28.96;20.82;101420.50;4956399;28;45490;-68
2022/04/18 11:07:19;;;;;;;;;8.00;6.50;;;;;28.72;20.94;101415.06;4974282;28;45387;-68
2022/04/18 11:09:46;;;;;;;;;6.25;5.00;;;;;28.59;21.08;101419.09;4972004;28;46034;-68
2022/04/18 11:12:20;;;;;;;;;6.00;5.25;;;;;28.51;21.31;101416.41;4970961;28;45643;-68
2022/04/18 11:15:04;;;;;;;;;5.00;5.00;;;;;28.38;21.10;101415.19;4970304;28;45508;-69
2022/04/18 11:17:29;;;;;;;;;4.25;4.25;;;;;28.32;21.25;101420.19;4971155;28;45518;-68
2022/04/18 11:19:56;;;;;;;;;12.75;12.50;;;;;28.05;21.06;101420.47;4971619;28;46814;-69
2022/04/18 11:22:22;;;;;;;;;7.25;5.00;;;;;27.90;21.08;101413.97;4983774;28;45709;-69
2022/04/18 11:24:51;;;;;;;;;10.00;6.75;;;;;27.73;21.48;101405.81;4972573;28;45390;-69
2022/04/18 11:27:26;;;;;;;;;12.75;11.50;;;;;27.83;22.50;101409.22;4971879;28;45550;-69
2022/04/18 11:29:53;;;;;;;;;47.25;38.00;;;;;27.78;21.84;101397.22;4971939;28;46198;-69
2022/04/18 11:32:21;;;;;;;;;36.75;31.25;;;;;27.62;21.56;101400.66;4971732;28;45448;-70
2022/04/18 11:34:48;;;;;;;;;47.00;36.50;;;;;27.52;22.28;101398.06;4970050;28;45434;-69
2022/04/18 11:37:43;;;;;;;;;12.75;10.75;;;;;27.53;22.16;101397.06;4973459;28;45362;-69
2022/04/18 11:40:14;;;;;;;;;25.75;21.25;;;;;27.46;22.54;101400.53;4971595;28;47190;-69
2022/04/18 11:42:40;;;;;;;;;3.25;2.50;;;;;27.35;22.16;101404.38;4971519;28;45620;-69